Time;durP1;ratioP1;P1;durP2;ratioP2;P2;SDS_P1;SDS_P2;PMS_P1;PMS_P2;Temp;Humidity;BMP_temperature;BMP_pressure;BME280_temperature;BME280_humidity;BME280_pressure;Samples;Min_cycle;Max_cycle;Signal;HPM_P1;HPM_P2
2022/08/05 00:01:44;;;;;;;5.40;4.25;;;28.60;56.00;;;;;;5056610;28;20024;-70
2022/08/05 00:04:10;;;;;;;4.55;4.15;;;28.60;55.90;;;;;;5070740;28;20046;-70
2022/08/05 00:06:37;;;;;;;7.05;5.03;;;28.60;56.00;;;;;;5054274;28;20033;-69
2022/08/05 00:09:04;;;;;;;7.07;4.57;;;28.80;56.00;;;;;;5051041;28;20071;-70
2022/08/05 00:11:30;;;;;;;8.15;5.03;;;28.70;56.00;;;;;;5041961;28;20050;-68
2022/08/05 00:13:56;;;;;;;4.82;4.32;;;28.70;56.00;;;;;;5050082;28;20037;-69
2022/08/05 00:16:22;;;;;;;4.88;4.45;;;28.70;55.90;;;;;;5057347;28;20035;-70
2022/08/05 00:18:49;;;;;;;5.90;4.97;;;28.80;56.00;;;;;;5055474;28;20108;-69
2022/08/05 00:21:16;;;;;;;9.00;4.70;;;28.70;55.90;;;;;;5050631;28;20040;-70
2022/08/05 00:23:45;;;;;;;10.02;5.00;;;28.50;55.90;;;;;;5050636;28;20363;-69
2022/08/05 00:26:11;;;;;;;6.38;4.55;;;28.60;56.00;;;;;;5049027;28;20097;-70
2022/08/05 00:28:38;;;;;;;6.13;5.00;;;28.70;55.90;;;;;;5049750;28;20032;-70
2022/08/05 00:31:04;;;;;;;6.00;4.60;;;28.70;56.00;;;;;;5056553;28;20048;-70
2022/08/05 00:33:31;;;;;;;7.75;4.80;;;28.60;55.90;;;;;;5071032;28;20031;-69
2022/08/05 00:35:57;;;;;;;6.15;5.45;;;28.60;55.90;;;;;;5053529;28;20110;-69
2022/08/05 00:38:24;;;;;;;13.65;5.38;;;28.60;55.90;;;;;;5054374;28;20032;-70
2022/08/05 00:40:54;;;;;;;5.65;4.22;;;28.60;55.90;;;;;;5047360;28;20021;-69
2022/08/05 00:43:20;;;;;;;12.38;5.13;;;28.60;55.90;;;;;;5080904;28;20030;-70
2022/08/05 00:45:46;;;;;;;8.45;5.00;;;28.70;55.90;;;;;;5057157;28;20130;-70
2022/08/05 00:48:15;;;;;;;4.97;4.47;;;28.60;55.80;;;;;;5073959;28;20438;-70
2022/08/05 00:50:45;;;;;;;7.30;4.63;;;28.50;55.80;;;;;;5073911;28;20040;-69
2022/08/05 00:53:12;;;;;;;6.07;5.13;;;28.70;55.80;;;;;;5069292;28;20048;-69
2022/08/05 00:55:38;;;;;;;6.63;5.40;;;28.50;55.80;;;;;;5051271;28;20033;-71
2022/08/05 00:58:04;;;;;;;7.13;5.13;;;28.50;55.80;;;;;;5047412;28;20447;-70
2022/08/05 01:00:30;;;;;;;6.43;5.40;;;28.50;55.90;;;;;;5062636;28;20041;-70
2022/08/05 01:02:57;;;;;;;4.88;4.40;;;28.50;55.90;;;;;;5071809;28;20381;-70
2022/08/05 01:05:24;;;;;;;8.48;4.35;;;28.60;55.90;;;;;;5073915;28;20033;-69
2022/08/05 01:07:51;;;;;;;7.97;4.30;;;28.50;55.90;;;;;;5071797;28;20032;-70
2022/08/05 01:10:21;;;;;;;8.80;5.03;;;28.50;55.90;;;;;;5049474;28;20075;-70
2022/08/05 01:12:52;;;;;;;5.65;4.50;;;28.60;55.90;;;;;;5032858;28;20033;-69
2022/08/05 01:15:24;;;;;;;5.20;4.45;;;28.50;55.90;;;;;;5045754;28;20017;-69
2022/08/05 01:17:55;;;;;;;5.13;4.35;;;28.50;55.90;;;;;;5073757;28;20365;-70
2022/08/05 01:20:38;;;;;;;5.80;4.93;;;28.60;55.90;;;;;;5072388;28;20445;-70
2022/08/05 01:23:04;;;;;;;;;;;28.50;55.90;;;;;;5061921;28;20465;-69
2022/08/05 01:26:01;;;;;;;4.88;4.35;;;28.60;55.90;;;;;;5050386;28;19915;-70
2022/08/05 01:28:37;;;;;;;5.22;4.13;;;28.50;55.90;;;;;;5053441;28;20033;-70
2022/08/05 01:31:41;;;;;;;6.05;4.32;;;28.60;55.90;;;;;;5040563;28;20077;-71
2022/08/05 01:34:21;;;;;;;7.75;4.57;;;28.70;55.90;;;;;;5036838;28;20552;-70
2022/08/05 01:37:13;;;;;;;9.05;4.57;;;28.50;55.80;;;;;;5038826;28;20037;-69
2022/08/05 01:39:41;;;;;;;5.78;4.88;;;28.60;55.80;;;;;;4971699;28;20518;-70
2022/08/05 01:42:11;;;;;;;6.65;4.63;;;28.50;55.80;;;;;;4990735;28;20050;-68
2022/08/05 01:44:38;;;;;;;7.95;5.63;;;28.50;55.80;;;;;;4991008;28;20050;-70
2022/08/05 01:47:05;;;;;;;5.00;4.60;;;28.50;55.80;;;;;;4988858;28;20030;-70
2022/08/05 01:49:32;;;;;;;6.57;5.28;;;28.50;55.80;;;;;;4958043;28;20050;-69
2022/08/05 01:52:01;;;;;;;6.50;5.15;;;28.40;55.80;;;;;;4979473;28;20061;-69
2022/08/05 01:54:34;;;;;;;5.80;4.97;;;28.40;55.70;;;;;;4988691;28;20035;-70
2022/08/05 01:57:02;;;;;;;5.65;5.00;;;28.30;55.70;;;;;;4964739;28;20073;-68
2022/08/05 01:59:31;;;;;;;9.50;5.45;;;28.40;55.70;;;;;;4978751;28;20022;-70
2022/08/05 02:01:59;;;;;;;6.57;4.38;;;28.40;55.70;;;;;;4975673;28;20039;-69
2022/08/05 02:04:28;;;;;;;6.57;4.70;;;28.30;55.80;;;;;;4971326;28;20562;-69
2022/08/05 02:06:55;;;;;;;5.03;4.53;;;28.40;55.80;;;;;;4971662;28;20181;-71
2022/08/05 02:09:22;;;;;;;7.20;5.03;;;28.40;55.80;;;;;;4982187;28;20073;-70
2022/08/05 02:12:11;;;;;;;6.57;4.97;;;28.40;55.80;;;;;;5010697;28;20072;-69
2022/08/05 02:14:43;;;;;;;5.82;5.22;;;28.40;55.80;;;;;;4958020;28;20549;-70
2022/08/05 02:17:24;;;;;;;5.40;4.32;;;28.30;55.80;;;;;;5047051;28;20047;-69
2022/08/05 02:19:57;;;;;;;5.53;4.45;;;28.50;55.80;;;;;;5071056;28;20033;-69
2022/08/05 02:22:30;;;;;;;4.82;4.28;;;28.30;55.80;;;;;;5072164;28;20048;-69
2022/08/05 02:25:11;;;;;;;;;;;28.40;55.80;;;;;;5062759;28;20032;-70
2022/08/05 02:27:39;;;;;;;8.63;4.80;;;28.40;55.80;;;;;;5051328;28;19928;-68
2022/08/05 02:30:07;;;;;;;7.68;4.95;;;28.40;55.80;;;;;;5050874;28;20037;-69
2022/08/05 02:32:35;;;;;;;6.38;4.72;;;28.40;55.70;;;;;;5051872;28;20045;-69
2022/08/05 02:35:05;;;;;;;5.32;4.28;;;28.40;55.80;;;;;;5052216;28;20065;-70
2022/08/05 02:37:33;;;;;;;6.43;5.50;;;28.50;55.70;;;;;;5062573;28;20768;-68
2022/08/05 02:40:02;;;;;;;6.82;5.20;;;28.50;55.70;;;;;;5032091;28;20037;-70
2022/08/05 02:42:29;;;;;;;7.05;5.18;;;28.50;55.60;;;;;;5049685;28;20460;-70
2022/08/05 02:44:57;;;;;;;6.82;4.78;;;28.50;55.60;;;;;;5048473;28;20665;-71
2022/08/05 02:47:24;;;;;;;6.10;4.90;;;28.50;55.60;;;;;;5068620;28;20036;-70
2022/08/05 02:49:51;;;;;;;5.45;4.32;;;28.30;55.60;;;;;;5053303;28;20028;-70
2022/08/05 02:52:19;;;;;;;7.60;5.30;;;28.30;55.60;;;;;;5069161;28;20049;-69
2022/08/05 02:54:46;;;;;;;6.07;4.97;;;28.30;55.60;;;;;;5069399;28;20070;-70
2022/08/05 02:57:15;;;;;;;8.40;5.72;;;28.40;55.60;;;;;;5049137;28;20033;-68
2022/08/05 02:59:46;;;;;;;9.00;5.68;;;28.40;55.60;;;;;;5046336;28;20087;-70
2022/08/05 03:02:14;;;;;;;6.75;4.68;;;28.30;55.60;;;;;;5050959;28;20186;-69
2022/08/05 03:04:41;;;;;;;5.55;4.95;;;28.40;55.40;;;;;;5065779;28;20466;-70
2022/08/05 03:07:09;;;;;;;6.63;5.05;;;28.30;55.40;;;;;;5071675;28;20044;-70
2022/08/05 03:09:36;;;;;;;6.32;5.03;;;28.20;55.40;;;;;;5071434;28;20484;-69
2022/08/05 03:12:03;;;;;;;4.97;4.47;;;28.30;55.20;;;;;;5041692;28;20500;-70
2022/08/05 03:14:29;;;;;;;6.88;5.40;;;28.30;55.00;;;;;;5053908;28;20040;-70
2022/08/05 03:16:55;;;;;;;5.20;4.50;;;28.20;55.10;;;;;;5052041;28;20056;-69
2022/08/05 03:19:21;;;;;;;5.82;4.63;;;28.20;55.10;;;;;;5050272;28;20029;-70
2022/08/05 03:21:47;;;;;;;3.92;3.60;;;28.20;55.10;;;;;;5068372;28;20037;-68
2022/08/05 03:24:13;;;;;;;4.35;3.85;;;28.10;55.00;;;;;;5071439;28;20065;-70
2022/08/05 03:26:40;;;;;;;4.78;4.10;;;28.20;55.10;;;;;;5048372;28;20485;-70
2022/08/05 03:29:06;;;;;;;6.22;4.90;;;28.10;55.10;;;;;;5031786;28;20041;-68
2022/08/05 03:31:32;;;;;;;8.27;5.05;;;28.20;55.10;;;;;;5053989;28;20105;-70
2022/08/05 03:33:58;;;;;;;7.20;5.03;;;28.10;55.50;;;;;;5069993;28;20058;-70
2022/08/05 03:36:25;;;;;;;7.50;4.05;;;28.10;55.60;;;;;;5053910;28;20050;-69
2022/08/05 03:38:51;;;;;;;6.18;4.90;;;28.10;55.70;;;;;;5051204;28;20037;-68
2022/08/05 03:41:17;;;;;;;5.80;5.20;;;28.10;55.80;;;;;;5049387;28;20025;-69
2022/08/05 03:43:43;;;;;;;5.55;4.85;;;28.10;55.70;;;;;;5051118;28;20120;-70
2022/08/05 03:46:09;;;;;;;6.38;4.68;;;28.30;55.80;;;;;;5061303;28;20044;-70
2022/08/05 03:48:35;;;;;;;5.53;4.40;;;28.10;55.80;;;;;;5071330;28;20029;-69
2022/08/05 03:51:22;;;;;;;5.45;4.75;;;28.20;55.80;;;;;;5068170;28;20028;-70
2022/08/05 03:53:53;;;;;;;9.80;5.13;;;28.30;55.80;;;;;;5056672;28;20620;-69
2022/08/05 03:56:38;;;;;;;5.32;4.70;;;28.20;55.80;;;;;;5047207;28;20098;-70
2022/08/05 03:59:08;;;;;;;9.68;4.97;;;28.30;55.80;;;;;;5050430;28;20033;-70
2022/08/05 04:01:38;;;;;;;10.43;5.18;;;28.20;55.80;;;;;;5045470;28;21339;-71
2022/08/05 04:04:06;;;;;;;7.00;5.60;;;28.30;55.80;;;;;;5047519;28;20055;-70
2022/08/05 04:06:36;;;;;;;5.65;4.30;;;28.20;55.80;;;;;;5051237;28;20036;-69
2022/08/05 04:09:04;;;;;;;10.10;6.13;;;28.30;55.80;;;;;;5044806;28;20127;-69
2022/08/05 04:11:32;;;;;;;8.75;5.90;;;28.20;55.80;;;;;;5052634;28;20087;-71
2022/08/05 04:13:59;;;;;;;5.28;4.72;;;28.20;55.80;;;;;;5102495;27;20498;-67
2022/08/05 04:16:25;;;;;;;7.53;5.70;;;28.40;55.80;;;;;;5052662;28;20119;-70
2022/08/05 04:18:52;;;;;;;8.57;4.85;;;28.40;55.80;;;;;;5054585;28;20033;-70
2022/08/05 04:21:19;;;;;;;7.78;5.20;;;28.30;55.70;;;;;;5054750;28;20036;-69
2022/08/05 04:23:45;;;;;;;7.57;4.93;;;28.30;55.70;;;;;;5052059;28;20420;-70
2022/08/05 04:26:13;;;;;;;6.82;5.28;;;28.40;55.80;;;;;;5053304;28;20037;-68
2022/08/05 04:28:39;;;;;;;7.13;5.40;;;28.40;55.70;;;;;;5035646;28;20517;-69
2022/08/05 04:31:05;;;;;;;8.02;5.40;;;28.50;55.70;;;;;;5049913;28;20041;-69
2022/08/05 04:33:31;;;;;;;9.52;5.60;;;28.50;55.60;;;;;;5055342;28;20037;-69
2022/08/05 04:35:57;;;;;;;13.02;6.82;;;28.40;55.70;;;;;;5052604;28;20065;-71
2022/08/05 04:38:23;;;;;;;5.93;5.00;;;28.50;55.60;;;;;;5056019;28;20029;-72
2022/08/05 04:40:49;;;;;;;11.27;6.28;;;28.50;54.70;;;;;;5061391;28;20048;-73
2022/08/05 04:43:16;;;;;;;9.95;5.55;;;28.50;54.70;;;;;;5060997;28;20090;-72
2022/08/05 04:45:42;;;;;;;8.43;6.00;;;28.40;54.70;;;;;;5061235;28;20085;-71
2022/08/05 04:48:09;;;;;;;8.95;5.78;;;28.50;54.70;;;;;;5060619;28;20029;-70
2022/08/05 04:50:46;;;;;;;8.18;5.20;;;28.40;54.70;;;;;;5057727;28;20049;-72
2022/08/05 04:53:14;;;;;;;9.93;5.00;;;28.60;54.80;;;;;;5074675;28;20054;-71
2022/08/05 04:55:41;;;;;;;6.10;5.13;;;28.50;55.00;;;;;;5061226;28;20118;-72
2022/08/05 04:58:10;;;;;;;8.30;4.97;;;28.40;55.10;;;;;;5054886;28;20523;-69
2022/08/05 05:00:38;;;;;;;7.40;5.80;;;28.50;55.40;;;;;;5053704;28;20561;-72
2022/08/05 05:03:05;;;;;;;8.10;6.05;;;28.50;55.40;;;;;;5058102;28;20091;-72
2022/08/05 05:05:32;;;;;;;7.28;4.95;;;28.50;55.20;;;;;;5061985;28;20446;-72
2022/08/05 05:08:06;;;;;;;7.82;5.22;;;28.60;55.10;;;;;;5053047;28;20068;-72
2022/08/05 05:10:45;;;;;;;6.85;5.15;;;28.50;55.00;;;;;;5051951;28;20064;-73
2022/08/05 05:13:16;;;;;;;5.78;4.45;;;28.50;55.10;;;;;;5050623;28;20400;-71
2022/08/05 05:15:44;;;;;;;6.57;5.95;;;28.50;55.10;;;;;;5053753;28;20037;-72
2022/08/05 05:18:14;;;;;;;6.88;4.88;;;28.70;54.80;;;;;;5053535;28;20047;-73
2022/08/05 05:20:44;;;;;;;6.47;4.00;;;28.50;54.80;;;;;;5050412;28;20029;-74
2022/08/05 05:23:12;;;;;;;13.13;4.88;;;28.60;56.50;;;;;;5033334;28;20405;-74
2022/08/05 05:25:41;;;;;;;5.22;2.83;;;28.60;55.80;;;;;;5036919;28;20738;-75
2022/08/05 05:28:08;;;;;;;7.65;3.65;;;28.60;57.10;;;;;;5051634;28;20028;-74
2022/08/05 05:30:34;;;;;;;7.20;3.97;;;28.80;59.00;;;;;;5051733;28;20064;-74
2022/08/05 05:33:03;;;;;;;6.75;4.00;;;28.70;58.70;;;;;;5048147;28;20083;-73
2022/08/05 05:35:30;;;;;;;3.60;3.13;;;28.60;57.60;;;;;;5049989;28;20074;-74
2022/08/05 05:37:59;;;;;;;2.38;2.17;;;28.70;56.50;;;;;;5053040;28;20024;-74
2022/08/05 05:40:26;;;;;;;3.60;1.90;;;28.70;55.90;;;;;;5051719;28;20039;-73
2022/08/05 05:42:53;;;;;;;5.70;3.35;;;28.70;55.60;;;;;;5048730;28;20032;-75
2022/08/05 05:45:20;;;;;;;8.00;3.95;;;28.70;55.40;;;;;;5051089;28;20029;-74
2022/08/05 05:47:47;;;;;;;6.10;3.72;;;28.70;55.30;;;;;;5063770;28;20051;-74
2022/08/05 05:50:15;;;;;;;2.08;1.95;;;28.60;55.30;;;;;;5059915;28;20090;-74
2022/08/05 05:52:42;;;;;;;4.95;3.83;;;28.60;55.30;;;;;;5046342;28;20040;-73
2022/08/05 05:55:10;;;;;;;4.07;2.25;;;28.70;55.30;;;;;;5053021;28;20028;-73
2022/08/05 05:57:37;;;;;;;3.95;2.97;;;28.70;55.40;;;;;;5049597;28;20046;-72
2022/08/05 06:00:06;;;;;;;7.75;3.13;;;28.60;55.40;;;;;;5059881;28;20067;-72
2022/08/05 06:02:38;;;;;;;5.85;3.00;;;28.60;55.50;;;;;;5073245;28;21018;-73
2022/08/05 06:05:06;;;;;;;3.95;2.85;;;28.60;55.50;;;;;;5057122;28;20485;-72
2022/08/05 06:07:33;;;;;;;1.92;1.75;;;28.50;55.50;;;;;;5041146;28;20454;-76
2022/08/05 06:09:59;;;;;;;2.38;1.75;;;28.50;55.60;;;;;;5052388;28;20042;-72
2022/08/05 06:12:25;;;;;;;4.25;3.25;;;28.50;55.60;;;;;;5072574;28;20085;-72
2022/08/05 06:14:51;;;;;;;4.93;4.07;;;28.50;55.70;;;;;;5033158;28;20033;-72
2022/08/05 06:17:17;;;;;;;1.38;1.30;;;28.50;55.90;;;;;;5046924;28;20025;-72
2022/08/05 06:19:43;;;;;;;3.90;2.63;;;28.50;56.10;;;;;;5050160;28;20033;-72
2022/08/05 06:22:09;;;;;;;2.85;2.20;;;28.40;56.00;;;;;;5064689;28;20389;-74
2022/08/05 06:24:40;;;;;;;6.53;3.45;;;28.40;56.00;;;;;;5052530;28;20095;-74
2022/08/05 06:27:06;;;;;;;7.10;2.78;;;28.40;56.10;;;;;;5052271;28;20056;-73
2022/08/05 06:29:32;;;;;;;3.88;2.25;;;28.40;56.20;;;;;;5048680;28;20095;-72
2022/08/05 06:31:58;;;;;;;5.00;3.05;;;28.40;56.20;;;;;;5060800;28;20055;-72
2022/08/05 06:34:24;;;;;;;3.10;2.60;;;28.50;56.20;;;;;;5065948;28;20111;-73
2022/08/05 06:36:50;;;;;;;9.02;3.90;;;28.40;56.10;;;;;;5056073;28;20437;-72
2022/08/05 06:39:16;;;;;;;4.82;4.03;;;28.50;56.20;;;;;;5069036;28;20182;-72
2022/08/05 06:41:42;;;;;;;3.95;2.88;;;28.40;56.10;;;;;;5053791;28;20119;-74
2022/08/05 06:44:08;;;;;;;2.95;2.15;;;28.40;56.10;;;;;;5042754;28;20044;-73
2022/08/05 06:46:34;;;;;;;4.72;3.70;;;28.40;56.10;;;;;;5057761;28;20044;-74
2022/08/05 06:49:00;;;;;;;3.90;3.50;;;28.40;56.10;;;;;;5050882;28;20377;-73
2022/08/05 06:51:26;;;;;;;3.17;2.88;;;28.40;56.10;;;;;;5050318;28;20033;-72
2022/08/05 06:53:52;;;;;;;6.20;4.53;;;28.40;56.10;;;;;;5069144;28;20062;-72
2022/08/05 06:56:18;;;;;;;4.40;3.30;;;28.50;56.10;;;;;;5052212;28;20437;-73
2022/08/05 06:58:44;;;;;;;6.40;5.57;;;28.40;56.20;;;;;;5046731;28;20060;-73
2022/08/05 07:01:10;;;;;;;1.67;1.38;;;28.50;56.30;;;;;;5057235;28;20109;-73
2022/08/05 07:03:36;;;;;;;6.10;5.22;;;28.40;56.30;;;;;;5046741;28;20397;-72
2022/08/05 07:06:03;;;;;;;6.60;5.18;;;28.40;56.20;;;;;;5047422;28;20033;-72
2022/08/05 07:08:29;;;;;;;7.30;4.95;;;28.40;56.20;;;;;;5046042;28;20060;-73
2022/08/05 07:10:55;;;;;;;5.82;4.32;;;28.40;56.00;;;;;;5044107;28;20078;-72
2022/08/05 07:18:52;;;;;;;5.82;5.20;;;28.40;56.10;;;;;;5069044;28;20032;-71
2022/08/05 07:21:18;;;;;;;7.85;5.10;;;28.40;56.20;;;;;;5051402;28;20025;-69
2022/08/05 07:23:44;;;;;;;6.93;6.22;;;28.50;56.30;;;;;;5044844;28;20122;-70
2022/08/05 07:26:10;;;;;;;8.07;5.55;;;28.40;56.10;;;;;;5055956;28;20056;-74
2022/08/05 07:28:36;;;;;;;5.63;5.03;;;28.40;56.00;;;;;;5049155;28;20045;-72
2022/08/05 07:31:02;;;;;;;7.50;4.72;;;28.30;55.90;;;;;;5050120;28;20052;-74
2022/08/05 07:33:28;;;;;;;6.22;5.05;;;28.40;55.90;;;;;;5066192;28;20028;-74
2022/08/05 07:35:54;;;;;;;6.18;5.47;;;28.40;56.10;;;;;;5071251;28;20044;-73
2022/08/05 07:38:20;;;;;;;6.68;5.05;;;28.40;56.10;;;;;;5081993;28;20036;-74
2022/08/05 07:40:46;;;;;;;7.82;5.25;;;28.30;56.00;;;;;;5049626;28;20500;-73
2022/08/05 07:43:12;;;;;;;8.07;5.47;;;28.40;56.10;;;;;;5052027;28;20029;-73
2022/08/05 07:45:40;;;;;;;8.15;4.72;;;28.40;56.10;;;;;;5053077;28;20453;-73
2022/08/05 07:48:07;;;;;;;6.90;4.85;;;28.30;56.00;;;;;;5055092;28;20667;-73
2022/08/05 07:50:33;;;;;;;6.25;4.93;;;28.50;56.10;;;;;;5070151;28;20048;-74
2022/08/05 07:52:59;;;;;;;6.93;5.85;;;28.40;56.10;;;;;;5075173;28;20115;-72
2022/08/05 07:55:25;;;;;;;6.63;4.75;;;28.50;56.10;;;;;;5074713;28;20033;-72
2022/08/05 07:57:51;;;;;;;7.10;5.20;;;28.40;56.30;;;;;;5056500;28;20021;-74
2022/08/05 08:00:17;;;;;;;8.98;5.13;;;28.50;56.20;;;;;;5051587;28;20025;-74
2022/08/05 08:02:43;;;;;;;6.18;5.38;;;28.40;56.10;;;;;;5054711;28;20028;-73
2022/08/05 08:05:10;;;;;;;7.00;5.88;;;28.40;56.30;;;;;;5052641;28;20047;-73
2022/08/05 08:07:36;;;;;;;6.88;5.20;;;28.50;56.80;;;;;;5052617;28;20167;-73
2022/08/05 08:10:03;;;;;;;5.63;5.10;;;28.40;57.00;;;;;;5052593;28;20516;-76
2022/08/05 08:12:29;;;;;;;9.73;5.32;;;28.40;57.10;;;;;;5053936;28;20044;-70
2022/08/05 08:14:56;;;;;;;7.63;5.38;;;28.40;57.00;;;;;;5052115;28;20713;-71
2022/08/05 08:17:22;;;;;;;6.20;4.57;;;28.50;57.20;;;;;;5054425;28;20363;-75
2022/08/05 08:19:48;;;;;;;5.57;4.72;;;28.60;57.40;;;;;;5053648;28;20044;-74
2022/08/05 08:22:15;;;;;;;6.82;5.40;;;28.50;57.50;;;;;;5052117;28;20021;-75
2022/08/05 08:24:41;;;;;;;7.13;4.82;;;28.50;57.30;;;;;;5067326;28;20532;-75
2022/08/05 08:27:07;;;;;;;5.28;4.30;;;28.50;56.90;;;;;;5055591;28;20029;-75
2022/08/05 08:29:33;;;;;;;5.90;5.18;;;28.60;56.80;;;;;;5045358;28;20148;-72
2022/08/05 08:31:59;;;;;;;5.47;4.97;;;28.60;56.70;;;;;;5048639;28;20049;-72
2022/08/05 08:34:26;;;;;;;5.97;5.28;;;28.50;56.50;;;;;;5050771;28;20029;-72
2022/08/05 08:36:53;;;;;;;7.72;4.93;;;28.70;56.40;;;;;;5050594;28;20719;-72
2022/08/05 08:39:22;;;;;;;5.22;4.32;;;28.70;56.40;;;;;;5050301;28;20488;-74
2022/08/05 08:41:49;;;;;;;8.25;4.22;;;28.70;56.10;;;;;;5050339;28;20033;-73
2022/08/05 08:44:17;;;;;;;10.77;5.45;;;28.60;56.00;;;;;;5044509;28;20072;-73
2022/08/05 08:46:46;;;;;;;7.88;5.30;;;28.70;56.10;;;;;;5040209;28;20046;-74
2022/08/05 08:49:14;;;;;;;9.68;7.45;;;28.70;56.50;;;;;;5051521;28;20029;-73
2022/08/05 08:51:42;;;;;;;9.55;5.35;;;28.80;56.40;;;;;;5051129;28;20408;-73
2022/08/05 08:54:09;;;;;;;6.13;4.75;;;28.60;56.60;;;;;;5049297;28;20429;-73
2022/08/05 08:56:38;;;;;;;7.07;5.13;;;28.60;56.90;;;;;;5047437;28;20087;-76
2022/08/05 08:59:04;;;;;;;9.55;5.50;;;28.70;56.80;;;;;;5045470;28;20029;-72
2022/08/05 09:01:31;;;;;;;8.50;7.50;;;28.60;56.40;;;;;;5049285;28;20033;-74
2022/08/05 09:03:59;;;;;;;9.20;6.18;;;28.50;56.40;;;;;;5050196;28;20806;-75
2022/08/05 09:06:30;;;;;;;8.73;5.97;;;28.60;56.60;;;;;;5049812;28;20083;-73
2022/08/05 09:09:00;;;;;;;11.52;7.63;;;28.50;56.80;;;;;;5049751;28;20266;-73
2022/08/05 09:11:27;;;;;;;6.45;5.03;;;28.70;56.60;;;;;;5048377;28;20454;-74
2022/08/05 09:13:54;;;;;;;5.53;4.50;;;28.60;56.10;;;;;;5026875;28;20045;-73
2022/08/05 09:16:20;;;;;;;4.25;3.28;;;28.70;57.60;;;;;;5044935;28;20116;-73
2022/08/05 09:18:47;;;;;;;4.65;1.45;;;28.70;58.90;;;;;;5042530;28;20383;-73
2022/08/05 09:21:13;;;;;;;3.53;3.03;;;28.70;59.80;;;;;;5043744;28;20067;-75
2022/08/05 09:23:39;;;;;;;5.88;4.60;;;28.80;60.10;;;;;;5051319;28;20056;-73
2022/08/05 09:26:11;;;;;;;5.63;3.58;;;28.70;59.30;;;;;;5073105;28;20045;-75
2022/08/05 09:28:39;;;;;;;5.68;4.40;;;28.70;59.70;;;;;;5062117;28;20051;-73
2022/08/05 09:31:11;;;;;;;5.85;4.88;;;28.70;59.50;;;;;;5047382;28;20040;-78
2022/08/05 09:33:49;;;;;;;6.53;4.70;;;28.70;56.90;;;;;;5050540;28;20041;-77
2022/08/05 09:36:15;;;;;;;5.57;4.40;;;28.70;58.80;;;;;;5051308;28;20285;-78
2022/08/05 09:38:59;;;;;;;5.10;4.38;;;28.60;58.90;;;;;;5051362;28;20041;-80
2022/08/05 09:41:25;;;;;;;6.05;3.95;;;28.70;58.30;;;;;;5051726;28;20041;-73
2022/08/05 09:43:52;;;;;;;5.43;4.65;;;28.70;57.20;;;;;;5051590;28;20021;-77
2022/08/05 09:46:29;;;;;;;8.70;5.13;;;28.80;57.30;;;;;;5048952;28;20029;-76
2022/08/05 09:48:57;;;;;;;4.03;3.40;;;28.70;57.30;;;;;;5052349;28;20025;-77
2022/08/05 09:51:40;;;;;;;5.53;4.40;;;28.70;57.30;;;;;;5049250;28;20075;-74
2022/08/05 09:54:08;;;;;;;6.03;4.50;;;28.80;57.30;;;;;;5049747;28;20048;-75
2022/08/05 09:56:36;;;;;;;2.00;1.23;;;28.70;57.20;;;;;;5047370;28;20040;-76
2022/08/05 09:59:04;;;;;;;6.70;5.32;;;28.60;58.10;;;;;;5051949;28;20071;-77
2022/08/05 10:01:40;;;;;;;8.93;5.07;;;28.70;57.40;;;;;;5044853;28;20146;-75
2022/08/05 10:04:12;;;;;;;6.43;4.95;;;28.80;57.10;;;;;;5046584;28;20032;-76
2022/08/05 10:06:40;;;;;;;6.68;5.13;;;28.80;56.70;;;;;;5051525;28;20040;-76
2022/08/05 10:09:11;;;;;;;5.07;4.57;;;28.70;56.20;;;;;;5050138;28;20103;-73
2022/08/05 10:11:38;;;;;;;4.47;4.07;;;28.70;55.00;;;;;;5031603;28;20072;-70
2022/08/05 10:14:27;;;;;;;26.77;10.43;;;28.80;58.40;;;;;;5048261;28;20083;-70
2022/08/05 10:16:55;;;;;;;8.80;4.97;;;28.90;55.70;;;;;;5032430;28;20068;-70
2022/08/05 10:19:23;;;;;;;5.45;4.93;;;29.00;55.50;;;;;;5046459;28;20049;-69
2022/08/05 10:21:50;;;;;;;6.32;3.88;;;29.00;54.30;;;;;;5049951;28;20039;-74
2022/08/05 10:24:18;;;;;;;5.82;4.75;;;29.00;54.90;;;;;;5063308;28;20062;-72
2022/08/05 10:26:47;;;;;;;6.15;3.92;;;29.00;55.10;;;;;;5064851;28;20469;-74
2022/08/05 10:29:13;;;;;;;3.38;3.08;;;29.00;53.70;;;;;;5071002;28;20029;-75
2022/08/05 10:31:40;;;;;;;6.07;3.80;;;29.00;53.70;;;;;;5039770;28;20095;-70
2022/08/05 10:34:08;;;;;;;4.22;3.45;;;28.90;52.60;;;;;;5048875;28;20153;-71
2022/08/05 10:36:36;;;;;;;4.72;4.22;;;28.90;52.50;;;;;;5044224;28;20075;-73
2022/08/05 10:39:20;;;;;;;5.38;4.63;;;28.90;52.30;;;;;;5049751;28;20025;-72
2022/08/05 10:41:57;;;;;;;4.72;3.47;;;29.00;52.50;;;;;;5035229;28;20041;-74
2022/08/05 10:44:24;;;;;;;6.63;4.38;;;28.90;51.70;;;;;;5038579;28;20457;-72
2022/08/05 10:46:53;;;;;;;10.43;4.75;;;28.90;51.60;;;;;;5047114;28;20025;-70
2022/08/05 10:49:24;;;;;;;4.78;3.83;;;28.90;51.50;;;;;;5059226;28;20074;-74
2022/08/05 10:51:59;;;;;;;3.88;3.50;;;28.70;51.40;;;;;;5057540;28;20041;-67
2022/08/05 10:54:45;;;;;;;4.32;3.50;;;28.80;51.50;;;;;;5044650;28;20045;-75
2022/08/05 10:57:11;;;;;;;3.20;2.95;;;28.80;51.60;;;;;;5044376;28;20183;-73
2022/08/05 10:59:38;;;;;;;5.97;3.95;;;28.80;51.60;;;;;;5044283;28;20029;-73
2022/08/05 11:02:09;;;;;;;4.03;3.63;;;28.90;51.40;;;;;;5044459;28;20036;-73
2022/08/05 11:04:54;;;;;;;5.25;4.72;;;28.60;51.50;;;;;;5048572;28;20469;-74
2022/08/05 11:07:20;;;;;;;5.45;4.38;;;28.60;51.60;;;;;;5052363;28;20029;-74
2022/08/05 11:09:53;;;;;;;4.32;3.53;;;28.70;51.40;;;;;;5049363;28;20049;-75
2022/08/05 11:12:44;;;;;;;3.78;3.47;;;28.60;51.10;;;;;;5045327;28;20044;-74
2022/08/05 11:15:33;;;;;;;9.15;4.70;;;28.60;51.20;;;;;;5042263;28;20038;-73
2022/08/05 11:18:26;;;;;;;3.35;3.05;;;28.50;51.80;;;;;;5046468;28;20025;-72
2022/08/05 11:20:53;;;;;;;3.13;2.85;;;28.50;51.50;;;;;;5049207;28;20445;-77
2022/08/05 11:23:49;;;;;;;4.10;3.70;;;28.60;51.20;;;;;;5053789;28;20021;-72
2022/08/05 11:26:16;;;;;;;4.35;3.95;;;28.60;51.40;;;;;;5055026;28;20051;-71
2022/08/05 11:28:45;;;;;;;3.83;3.42;;;28.40;51.20;;;;;;5051310;28;20048;-71
2022/08/05 11:31:11;;;;;;;4.07;3.67;;;28.60;50.40;;;;;;5046766;28;20052;-74
2022/08/05 11:33:59;;;;;;;3.80;3.40;;;28.50;49.80;;;;;;5046289;28;20048;-71
2022/08/05 11:36:45;;;;;;;4.53;4.13;;;28.50;48.40;;;;;;5052269;28;20062;-72
2022/08/05 11:39:13;;;;;;;5.45;3.90;;;28.60;48.50;;;;;;5047250;28;20025;-72
2022/08/05 11:41:41;;;;;;;4.43;3.92;;;28.60;48.60;;;;;;5050584;28;20427;-73
2022/08/05 11:44:10;;;;;;;6.40;3.83;;;28.50;49.20;;;;;;5050832;28;20393;-73
2022/08/05 11:46:40;;;;;;;4.75;3.42;;;28.60;49.70;;;;;;5046202;28;20102;-75
2022/08/05 11:49:12;;;;;;;4.30;3.63;;;28.70;50.20;;;;;;5049212;28;20044;-74
2022/08/05 11:51:42;;;;;;;4.13;3.38;;;28.60;50.50;;;;;;5051060;28;20041;-73
2022/08/05 11:54:13;;;;;;;3.83;3.42;;;28.50;50.60;;;;;;5042996;28;20037;-71
2022/08/05 11:56:48;;;;;;;5.95;3.97;;;28.70;50.50;;;;;;5049588;28;20159;-76
2022/08/05 11:59:18;;;;;;;4.97;3.85;;;28.60;50.50;;;;;;5043197;28;20032;-74
2022/08/05 12:01:54;;;;;;;4.80;3.80;;;28.50;50.40;;;;;;5048249;28;20033;-75
2022/08/05 12:04:21;;;;;;;3.70;3.40;;;28.70;50.50;;;;;;5040889;28;20455;-76
2022/08/05 12:06:47;;;;;;;2.90;2.60;;;28.60;50.50;;;;;;5047927;28;20036;-73
2022/08/05 12:09:19;;;;;;;3.60;2.95;;;28.50;50.70;;;;;;5063934;28;20056;-76
2022/08/05 12:11:46;;;;;;;4.85;3.20;;;28.70;50.80;;;;;;5059443;28;20071;-74
2022/08/05 12:14:12;;;;;;;4.25;3.47;;;28.60;50.80;;;;;;5059353;28;20033;-74
2022/08/05 12:16:40;;;;;;;4.35;3.78;;;28.60;50.90;;;;;;5052533;28;20065;-73
2022/08/05 12:19:11;;;;;;;3.95;3.55;;;28.70;50.90;;;;;;5064637;28;20043;-74
2022/08/05 12:21:49;;;;;;;3.13;2.80;;;28.70;51.10;;;;;;5037539;28;20035;-75
2022/08/05 12:24:17;;;;;;;6.13;3.38;;;28.60;51.20;;;;;;5049786;28;20759;-75
2022/08/05 12:26:48;;;;;;;3.78;3.40;;;28.50;51.20;;;;;;5050985;28;20036;-74
2022/08/05 12:29:23;;;;;;;3.55;3.13;;;28.50;51.30;;;;;;5064747;28;20028;-75
2022/08/05 12:31:54;;;;;;;3.75;3.30;;;28.60;51.40;;;;;;5060246;28;20025;-75
2022/08/05 12:34:39;;;;;;;3.67;3.33;;;28.50;51.60;;;;;;5053797;28;20546;-74
2022/08/05 12:37:10;;;;;;;3.63;3.30;;;28.60;51.60;;;;;;5050199;28;20084;-73
2022/08/05 12:39:38;;;;;;;2.95;2.65;;;28.50;51.70;;;;;;5033776;28;20033;-73
2022/08/05 12:42:12;;;;;;;3.65;3.28;;;28.60;51.80;;;;;;5041303;28;20112;-72
2022/08/05 12:44:39;;;;;;;5.55;3.22;;;28.50;51.90;;;;;;5049180;28;20041;-74
2022/08/05 12:47:06;;;;;;;3.58;3.28;;;28.60;52.00;;;;;;5052541;28;20087;-74
2022/08/05 12:49:59;;;;;;;9.43;3.20;;;28.40;52.10;;;;;;5035186;28;20108;-73
2022/08/05 12:52:26;;;;;;;3.25;2.92;;;28.40;52.20;;;;;;5026370;28;20050;-71
2022/08/05 12:54:52;;;;;;;3.70;3.30;;;28.40;52.20;;;;;;5027346;28;20099;-72
2022/08/05 12:57:19;;;;;;;6.03;3.45;;;28.40;52.20;;;;;;5029340;28;20649;-74
2022/08/05 12:59:49;;;;;;;3.72;3.28;;;28.40;52.40;;;;;;5029182;28;20128;-71
2022/08/05 13:02:22;;;;;;;3.67;3.35;;;28.50;52.50;;;;;;5023221;28;20068;-73
2022/08/05 13:04:49;;;;;;;4.50;3.00;;;28.50;52.60;;;;;;5026066;28;20070;-73